sensor_id;sensor_type;location;lat;lon;timestamp;pressure;altitude;pressure_sealevel;temperature;humidity
8398;BME280;4236;54.504;9.588;2023-07-28T00:02:23;100202.47;;;17.00;100.00
8398;BME280;4236;54.504;9.588;2023-07-28T00:04:52;100207.03;;;16.99;100.00
8398;BME280;4236;54.504;9.588;2023-07-28T00:07:20;100206.78;;;17.01;100.00
8398;BME280;4236;54.504;9.588;2023-07-28T00:09:48;100209.72;;;16.99;100.00
8398;BME280;4236;54.504;9.588;2023-07-28T00:12:15;100214.06;;;17.00;100.00
8398;BME280;4236;54.504;9.588;2023-07-28T00:14:44;100209.50;;;17.01;100.00
8398;BME280;4236;54.504;9.588;2023-07-28T00:17:12;100212.19;;;17.01;100.00
8398;BME280;4236;54.504;9.588;2023-07-28T00:19:40;100215.09;;;16.99;100.00
8398;BME280;4236;54.504;9.588;2023-07-28T00:22:09;100227.78;;;16.99;100.00
8398;BME280;4236;54.504;9.588;2023-07-28T00:24:37;100232.34;;;16.98;100.00
8398;BME280;4236;54.504;9.588;2023-07-28T00:27:05;100233.19;;;16.99;100.00
8398;BME280;4236;54.504;9.588;2023-07-28T00:29:33;100229.41;;;17.00;100.00
8398;BME280;4236;54.504;9.588;2023-07-28T00:32:00;100229.91;;;16.97;100.00
8398;BME280;4236;54.504;9.588;2023-07-28T00:34:28;100224.78;;;16.95;100.00
8398;BME280;4236;54.504;9.588;2023-07-28T00:36:56;100228.78;;;16.93;100.00
8398;BME280;4236;54.504;9.588;2023-07-28T00:39:25;100236.56;;;16.89;100.00
8398;BME280;4236;54.504;9.588;2023-07-28T00:41:53;100234.03;;;16.83;100.00
8398;BME280;4236;54.504;9.588;2023-07-28T00:44:20;100239.38;;;16.78;100.00
8398;BME280;4236;54.504;9.588;2023-07-28T00:46:48;100242.28;;;16.76;100.00
8398;BME280;4236;54.504;9.588;2023-07-28T00:49:16;100241.72;;;16.74;100.00
8398;BME280;4236;54.504;9.588;2023-07-28T00:51:44;100239.03;;;16.74;100.00
8398;BME280;4236;54.504;9.588;2023-07-28T00:54:12;100237.16;;;16.75;100.00
8398;BME280;4236;54.504;9.588;2023-07-28T00:56:41;100238.53;;;16.77;100.00
8398;BME280;4236;54.504;9.588;2023-07-28T00:59:09;100239.38;;;16.78;100.00
8398;BME280;4236;54.504;9.588;2023-07-28T01:01:37;100241.78;;;16.79;100.00
8398;BME280;4236;54.504;9.588;2023-07-28T01:04:04;100229.69;;;16.82;100.00
8398;BME280;4236;54.504;9.588;2023-07-28T01:06:37;100231.59;;;16.81;100.00
8398;BME280;4236;54.504;9.588;2023-07-28T01:09:12;100232.66;;;16.80;100.00
8398;BME280;4236;54.504;9.588;2023-07-28T01:11:53;100229.69;;;16.82;100.00
8398;BME280;4236;54.504;9.588;2023-07-28T01:14:21;100219.75;;;16.82;100.00
8398;BME280;4236;54.504;9.588;2023-07-28T01:16:50;100218.94;;;16.82;100.00
8398;BME280;4236;54.504;9.588;2023-07-28T01:19:20;100223.75;;;16.80;100.00
8398;BME280;4236;54.504;9.588;2023-07-28T01:21:54;100222.94;;;16.79;100.00
8398;BME280;4236;54.504;9.588;2023-07-28T01:24:29;100218.88;;;16.77;100.00
8398;BME280;4236;54.504;9.588;2023-07-28T01:27:04;100222.88;;;16.74;100.00
8398;BME280;4236;54.504;9.588;2023-07-28T01:29:34;100223.13;;;16.73;100.00
8398;BME280;4236;54.504;9.588;2023-07-28T01:32:04;100216.34;;;16.70;100.00
8398;BME280;4236;54.504;9.588;2023-07-28T01:34:32;100216.63;;;16.69;100.00
8398;BME280;4236;54.504;9.588;2023-07-28T01:37:00;100223.31;;;16.66;100.00
8398;BME280;4236;54.504;9.588;2023-07-28T01:39:27;100222.50;;;16.66;100.00
8398;BME280;4236;54.504;9.588;2023-07-28T01:41:55;100226.75;;;16.62;100.00
8398;BME280;4236;54.504;9.588;2023-07-28T01:44:24;100221.75;;;16.53;100.00
8398;BME280;4236;54.504;9.588;2023-07-28T01:46:52;65034.22;;;-141.22;100.00
8398;BME280;4236;54.504;9.588;2023-07-28T01:49:20;65034.22;;;-141.22;100.00
8398;BME280;4236;54.504;9.588;2023-07-28T01:51:47;100234.75;;;16.40;100.00
8398;BME280;4236;54.504;9.588;2023-07-28T01:54:15;100233.38;;;16.37;100.00
8398;BME280;4236;54.504;9.588;2023-07-28T01:56:43;65034.22;;;-141.22;100.00
8398;BME280;4236;54.504;9.588;2023-07-28T01:59:10;100231.97;;;16.35;100.00
8398;BME280;4236;54.504;9.588;2023-07-28T02:01:41;100222.59;;;16.37;100.00
8398;BME280;4236;54.504;9.588;2023-07-28T02:04:08;100220.72;;;16.38;100.00
8398;BME280;4236;54.504;9.588;2023-07-28T02:06:36;100230.44;;;16.39;100.00
8398;BME280;4236;54.504;9.588;2023-07-28T02:09:04;100221.06;;;16.41;100.00
8398;BME280;4236;54.504;9.588;2023-07-28T02:11:32;100221.06;;;16.41;100.00
8398;BME280;4236;54.504;9.588;2023-07-28T02:13:59;100221.06;;;16.41;100.00
8398;BME280;4236;54.504;9.588;2023-07-28T02:16:27;100221.06;;;16.41;100.00
8398;BME280;4236;54.504;9.588;2023-07-28T02:18:58;100221.06;;;16.41;100.00
8398;BME280;4236;54.504;9.588;2023-07-28T02:21:26;100221.06;;;16.41;100.00
8398;BME280;4236;54.504;9.588;2023-07-28T02:23:56;100221.06;;;16.41;100.00
8398;BME280;4236;54.504;9.588;2023-07-28T02:26:24;100221.06;;;16.41;100.00
8398;BME280;4236;54.504;9.588;2023-07-28T02:28:51;100221.06;;;16.41;100.00
8398;BME280;4236;54.504;9.588;2023-07-28T02:31:19;100221.06;;;16.41;100.00
8398;BME280;4236;54.504;9.588;2023-07-28T02:33:47;100221.06;;;16.41;100.00
8398;BME280;4236;54.504;9.588;2023-07-28T02:36:16;100245.00;;;16.43;100.00
8398;BME280;4236;54.504;9.588;2023-07-28T02:38:44;65034.22;;;-141.22;100.00
8398;BME280;4236;54.504;9.588;2023-07-28T02:41:11;65034.22;;;-141.22;100.00
8398;BME280;4236;54.504;9.588;2023-07-28T02:43:39;65034.22;;;-141.22;100.00
8398;BME280;4236;54.504;9.588;2023-07-28T02:46:07;65034.22;;;-141.22;100.00
8398;BME280;4236;54.504;9.588;2023-07-28T02:48:35;65034.22;;;-141.22;100.00
8398;BME280;4236;54.504;9.588;2023-07-28T02:51:03;76896.81;;;-141.22;100.00
8398;BME280;4236;54.504;9.588;2023-07-28T02:53:32;76896.81;;;-141.22;100.00
8398;BME280;4236;54.504;9.588;2023-07-28T02:55:59;76896.81;;;-141.22;100.00
8398;BME280;4236;54.504;9.588;2023-07-28T02:58:27;76896.81;;;-141.22;100.00
8398;BME280;4236;54.504;9.588;2023-07-28T03:00:55;100245.00;;;16.43;100.00
8398;BME280;4236;54.504;9.588;2023-07-28T03:03:23;65034.22;;;-141.22;100.00
8398;BME280;4236;54.504;9.588;2023-07-28T03:08:20;76896.81;;;-141.22;100.00
8398;BME280;4236;54.504;9.588;2023-07-28T03:10:49;76896.81;;;-141.22;100.00
8398;BME280;4236;54.504;9.588;2023-07-28T03:13:17;76896.81;;;-141.22;100.00
8398;BME280;4236;54.504;9.588;2023-07-28T03:15:44;76896.81;;;-141.22;100.00
8398;BME280;4236;54.504;9.588;2023-07-28T03:18:12;76896.81;;;-141.22;100.00
8398;BME280;4236;54.504;9.588;2023-07-28T03:20:40;76896.81;;;-141.22;100.00
8398;BME280;4236;54.504;9.588;2023-07-28T03:23:07;76896.81;;;-141.22;100.00
8398;BME280;4236;54.504;9.588;2023-07-28T03:25:35;52415.94;;;-141.22;100.00
8398;BME280;4236;54.504;9.588;2023-07-28T03:28:04;76896.81;;;-141.22;100.00
8398;BME280;4236;54.504;9.588;2023-07-28T03:30:32;100245.00;;;16.43;100.00
8398;BME280;4236;54.504;9.588;2023-07-28T03:32:59;100245.00;;;16.43;100.00
8398;BME280;4236;54.504;9.588;2023-07-28T03:35:27;100245.00;;;16.43;100.00
8398;BME280;4236;54.504;9.588;2023-07-28T03:37:55;100273.00;;;16.09;100.00
8398;BME280;4236;54.504;9.588;2023-07-28T03:40:23;100266.88;;;16.13;100.00
8398;BME280;4236;54.504;9.588;2023-07-28T03:42:51;65034.22;;;-141.22;100.00
8398;BME280;4236;54.504;9.588;2023-07-28T03:45:20;65034.22;;;-141.22;100.00
8398;BME280;4236;54.504;9.588;2023-07-28T03:47:48;65034.22;;;-141.22;100.00
8398;BME280;4236;54.504;9.588;2023-07-28T03:50:16;65034.22;;;-141.22;100.00
8398;BME280;4236;54.504;9.588;2023-07-28T03:52:44;65034.22;;;-141.22;100.00
8398;BME280;4236;54.504;9.588;2023-07-28T03:55:12;100266.88;;;16.13;100.00
8398;BME280;4236;54.504;9.588;2023-07-28T03:57:40;100266.88;;;16.13;100.00
8398;BME280;4236;54.504;9.588;2023-07-28T04:00:08;100266.88;;;16.13;100.00
8398;BME280;4236;54.504;9.588;2023-07-28T04:02:38;100266.88;;;16.13;100.00
8398;BME280;4236;54.504;9.588;2023-07-28T04:05:06;100266.88;;;16.13;100.00
8398;BME280;4236;54.504;9.588;2023-07-28T04:07:34;100281.97;;;16.31;100.00
8398;BME280;4236;54.504;9.588;2023-07-28T04:10:02;100281.97;;;16.31;100.00
8398;BME280;4236;54.504;9.588;2023-07-28T04:12:29;65034.22;;;-141.22;100.00
8398;BME280;4236;54.504;9.588;2023-07-28T04:14:57;65034.22;;;-141.22;100.00
8398;BME280;4236;54.504;9.588;2023-07-28T04:17:25;65034.22;;;-141.22;100.00
8398;BME280;4236;54.504;9.588;2023-07-28T04:19:54;100281.97;;;16.31;100.00
8398;BME280;4236;54.504;9.588;2023-07-28T04:22:21;76939.88;;;-141.22;100.00
8398;BME280;4236;54.504;9.588;2023-07-28T04:24:49;76939.88;;;-141.22;100.00
